sensor_id;sensor_type;location;lat;lon;timestamp;pressure;altitude;pressure_sealevel;temperature;humidity
29941;BME280;16801;53.562;10.038;2022-08-03T00:00:16;101421.56;;;22.67;62.24
29941;BME280;16801;53.562;10.038;2022-08-03T00:03:37;101424.84;;;22.56;62.64
29941;BME280;16801;53.562;10.038;2022-08-03T00:06:59;101424.28;;;22.60;63.03
29941;BME280;16801;53.562;10.038;2022-08-03T00:10:19;101430.34;;;22.56;62.92
29941;BME280;16801;53.562;10.038;2022-08-03T00:13:40;101420.09;;;22.43;63.37
29941;BME280;16801;53.562;10.038;2022-08-03T00:17:03;101422.41;;;22.40;63.79
29941;BME280;16801;53.562;10.038;2022-08-03T00:20:24;101418.41;;;22.42;63.97
29941;BME280;16801;53.562;10.038;2022-08-03T00:23:45;101420.16;;;22.50;64.14
29941;BME280;16801;53.562;10.038;2022-08-03T00:27:06;101425.00;;;22.48;64.01
29941;BME280;16801;53.562;10.038;2022-08-03T00:30:27;101413.75;;;22.43;64.14
29941;BME280;16801;53.562;10.038;2022-08-03T00:33:50;101406.06;;;22.32;64.69
29941;BME280;16801;53.562;10.038;2022-08-03T00:37:11;101415.72;;;22.21;64.92
29941;BME280;16801;53.562;10.038;2022-08-03T00:40:32;101412.91;;;22.14;64.77
29941;BME280;16801;53.562;10.038;2022-08-03T00:43:53;101414.34;;;22.10;64.96
29941;BME280;16801;53.562;10.038;2022-08-03T00:47:14;101407.34;;;22.08;65.41
29941;BME280;16801;53.562;10.038;2022-08-03T00:50:39;101407.69;;;21.98;65.43
29941;BME280;16801;53.562;10.038;2022-08-03T00:54:01;101407.03;;;21.96;65.90
29941;BME280;16801;53.562;10.038;2022-08-03T00:57:22;101405.53;;;21.94;65.78
29941;BME280;16801;53.562;10.038;2022-08-03T01:00:43;101411.31;;;22.05;66.21
29941;BME280;16801;53.562;10.038;2022-08-03T01:04:04;101414.13;;;22.12;65.79
29941;BME280;16801;53.562;10.038;2022-08-03T01:07:41;101408.00;;;22.10;65.96
29941;BME280;16801;53.562;10.038;2022-08-03T01:11:11;101409.78;;;21.96;65.56
29941;BME280;16801;53.562;10.038;2022-08-03T01:14:40;101411.91;;;21.80;65.82
29941;BME280;16801;53.562;10.038;2022-08-03T01:18:08;101412.94;;;21.79;66.36
29941;BME280;16801;53.562;10.038;2022-08-03T01:21:35;101410.13;;;21.72;66.44
29941;BME280;16801;53.562;10.038;2022-08-03T01:25:05;101400.00;;;21.73;66.27
29941;BME280;16801;53.562;10.038;2022-08-03T01:28:43;101408.16;;;21.66;65.93
29941;BME280;16801;53.562;10.038;2022-08-03T01:32:11;101397.63;;;21.70;66.00
29941;BME280;16801;53.562;10.038;2022-08-03T01:35:37;101397.91;;;21.54;66.22
29941;BME280;16801;53.562;10.038;2022-08-03T01:39:02;101404.44;;;21.53;66.15
29941;BME280;16801;53.562;10.038;2022-08-03T01:42:28;101389.34;;;21.42;66.67
29941;BME280;16801;53.562;10.038;2022-08-03T01:45:51;101393.25;;;21.33;66.71
29941;BME280;16801;53.562;10.038;2022-08-03T01:49:16;101394.28;;;21.32;66.94
29941;BME280;16801;53.562;10.038;2022-08-03T01:52:39;101396.34;;;21.30;67.19
29941;BME280;16801;53.562;10.038;2022-08-03T01:56:03;101395.13;;;21.32;66.99
29941;BME280;16801;53.562;10.038;2022-08-03T01:59:27;101398.72;;;21.33;66.86
29941;BME280;16801;53.562;10.038;2022-08-03T02:02:49;101394.00;;;21.27;67.02
29941;BME280;16801;53.562;10.038;2022-08-03T02:06:13;101389.97;;;21.23;67.31
29941;BME280;16801;53.562;10.038;2022-08-03T02:09:36;101389.41;;;21.13;67.29
29941;BME280;16801;53.562;10.038;2022-08-03T02:13:00;101385.72;;;21.06;68.06
29941;BME280;16801;53.562;10.038;2022-08-03T02:16:23;101384.06;;;21.05;67.94
29941;BME280;16801;53.562;10.038;2022-08-03T02:19:46;101391.03;;;21.07;68.11
29941;BME280;16801;53.562;10.038;2022-08-03T02:23:10;101386.97;;;21.03;68.18
29941;BME280;16801;53.562;10.038;2022-08-03T02:26:34;101380.69;;;20.95;68.39
29941;BME280;16801;53.562;10.038;2022-08-03T02:30:01;101386.47;;;21.00;68.40
29941;BME280;16801;53.562;10.038;2022-08-03T02:33:30;101379.78;;;20.88;68.91
29941;BME280;16801;53.562;10.038;2022-08-03T02:36:53;101378.44;;;20.98;68.83
29941;BME280;16801;53.562;10.038;2022-08-03T02:40:18;101374.31;;;20.88;68.85
29941;BME280;16801;53.562;10.038;2022-08-03T02:43:40;101378.25;;;21.00;68.30
29941;BME280;16801;53.562;10.038;2022-08-03T02:47:07;101371.81;;;20.93;68.48
29941;BME280;16801;53.562;10.038;2022-08-03T02:50:30;101370.34;;;20.76;69.30
29941;BME280;16801;53.562;10.038;2022-08-03T02:53:53;101376.56;;;20.69;69.25
29941;BME280;16801;53.562;10.038;2022-08-03T02:57:17;101370.25;;;20.69;69.13
29941;BME280;16801;53.562;10.038;2022-08-03T03:00:42;101373.91;;;20.76;69.26
29941;BME280;16801;53.562;10.038;2022-08-03T03:04:04;101369.50;;;20.60;69.42
29941;BME280;16801;53.562;10.038;2022-08-03T03:07:25;101371.94;;;20.55;69.40
29941;BME280;16801;53.562;10.038;2022-08-03T03:10:47;101375.72;;;20.54;69.65
29941;BME280;16801;53.562;10.038;2022-08-03T03:14:10;101373.34;;;20.51;69.93
29941;BME280;16801;53.562;10.038;2022-08-03T03:17:32;101371.19;;;20.47;69.84
29941;BME280;16801;53.562;10.038;2022-08-03T03:20:55;101371.19;;;20.47;70.08
29941;BME280;16801;53.562;10.038;2022-08-03T03:24:17;101366.75;;;20.46;70.10
29941;BME280;16801;53.562;10.038;2022-08-03T03:27:38;101363.47;;;20.50;69.92
29941;BME280;16801;53.562;10.038;2022-08-03T03:31:03;101369.59;;;20.38;70.37
29941;BME280;16801;53.562;10.038;2022-08-03T03:34:24;101367.22;;;20.35;70.24
29941;BME280;16801;53.562;10.038;2022-08-03T03:37:45;101373.81;;;20.40;70.16
29941;BME280;16801;53.562;10.038;2022-08-03T03:41:06;101372.03;;;20.47;69.80
29941;BME280;16801;53.562;10.038;2022-08-03T03:44:27;101377.72;;;20.60;69.74
29941;BME280;16801;53.562;10.038;2022-08-03T03:47:50;101372.03;;;20.62;69.54
29941;BME280;16801;53.562;10.038;2022-08-03T03:51:11;101370.63;;;20.66;69.18
29941;BME280;16801;53.562;10.038;2022-08-03T03:54:39;101367.22;;;20.49;69.71
29941;BME280;16801;53.562;10.038;2022-08-03T03:58:01;101380.16;;;20.41;69.79
29941;BME280;16801;53.562;10.038;2022-08-03T04:01:22;101378.00;;;20.14;70.54
29941;BME280;16801;53.562;10.038;2022-08-03T04:04:45;101377.13;;;20.13;70.86
29941;BME280;16801;53.562;10.038;2022-08-03T04:08:24;101383.47;;;20.14;70.72
29941;BME280;16801;53.562;10.038;2022-08-03T04:12:03;101373.19;;;20.16;70.93
29941;BME280;16801;53.562;10.038;2022-08-03T04:15:27;101374.97;;;20.31;70.43
29941;BME280;16801;53.562;10.038;2022-08-03T04:18:51;101375.78;;;20.46;70.28
29941;BME280;16801;53.562;10.038;2022-08-03T04:22:17;101374.31;;;20.58;69.63
29941;BME280;16801;53.562;10.038;2022-08-03T04:25:39;101373.56;;;20.64;69.44
29941;BME280;16801;53.562;10.038;2022-08-03T04:29:03;101378.28;;;20.56;69.87
29941;BME280;16801;53.562;10.038;2022-08-03T04:32:25;101380.16;;;20.55;69.98
29941;BME280;16801;53.562;10.038;2022-08-03T04:35:48;101381.88;;;20.56;69.77
29941;BME280;16801;53.562;10.038;2022-08-03T04:39:13;101373.75;;;20.63;69.61
29941;BME280;16801;53.562;10.038;2022-08-03T04:42:36;101369.19;;;20.70;69.28
29941;BME280;16801;53.562;10.038;2022-08-03T04:45:59;101370.81;;;20.79;69.00
29941;BME280;16801;53.562;10.038;2022-08-03T04:49:20;101374.44;;;21.01;68.70
29941;BME280;16801;53.562;10.038;2022-08-03T04:52:43;101378.38;;;21.06;68.35
29941;BME280;16801;53.562;10.038;2022-08-03T04:56:06;101382.88;;;21.14;68.15
29941;BME280;16801;53.562;10.038;2022-08-03T04:59:27;101392.94;;;21.07;68.38
29941;BME280;16801;53.562;10.038;2022-08-03T05:02:48;101384.38;;;21.16;68.11
29941;BME280;16801;53.562;10.038;2022-08-03T05:06:09;101391.41;;;21.04;68.42
29941;BME280;16801;53.562;10.038;2022-08-03T05:09:30;101393.47;;;21.17;67.98
29941;BME280;16801;53.562;10.038;2022-08-03T05:12:52;101391.34;;;21.33;67.43
29941;BME280;16801;53.562;10.038;2022-08-03T05:16:14;101395.69;;;21.28;67.31
29941;BME280;16801;53.562;10.038;2022-08-03T05:19:35;101395.59;;;21.36;67.19
29941;BME280;16801;53.562;10.038;2022-08-03T05:22:56;101391.72;;;21.30;66.99
29941;BME280;16801;53.562;10.038;2022-08-03T05:26:18;101392.13;;;21.27;67.59
29941;BME280;16801;53.562;10.038;2022-08-03T05:29:40;101392.88;;;21.36;67.24
29941;BME280;16801;53.562;10.038;2022-08-03T05:33:02;101392.63;;;21.52;66.90
29941;BME280;16801;53.562;10.038;2022-08-03T05:36:23;101392.63;;;21.52;66.84
29941;BME280;16801;53.562;10.038;2022-08-03T05:39:43;101396.59;;;21.49;66.99
29941;BME280;16801;53.562;10.038;2022-08-03T05:43:04;101390.72;;;21.53;66.42
29941;BME280;16801;53.562;10.038;2022-08-03T05:46:26;101387.06;;;21.45;66.47
29941;BME280;16801;53.562;10.038;2022-08-03T05:49:47;101390.78;;;21.59;66.23
29941;BME280;16801;53.562;10.038;2022-08-03T05:53:08;101391.78;;;21.73;65.62
29941;BME280;16801;53.562;10.038;2022-08-03T05:56:29;101392.97;;;21.85;65.78
29941;BME280;16801;53.562;10.038;2022-08-03T05:59:50;101401.34;;;21.98;65.29
29941;BME280;16801;53.562;10.038;2022-08-03T06:03:13;101392.13;;;22.33;64.41
29941;BME280;16801;53.562;10.038;2022-08-03T06:06:34;101390.47;;;22.39;63.83
29941;BME280;16801;53.562;10.038;2022-08-03T06:09:55;101392.50;;;22.30;64.31
29941;BME280;16801;53.562;10.038;2022-08-03T06:13:16;101391.16;;;22.47;64.39
29941;BME280;16801;53.562;10.038;2022-08-03T06:16:37;101392.78;;;22.35;64.17
29941;BME280;16801;53.562;10.038;2022-08-03T06:19:59;101391.75;;;22.43;63.81
29941;BME280;16801;53.562;10.038;2022-08-03T06:23:21;101386.31;;;22.49;63.58
29941;BME280;16801;53.562;10.038;2022-08-03T06:26:42;101387.22;;;22.56;63.56
29941;BME280;16801;53.562;10.038;2022-08-03T06:30:04;101390.81;;;22.57;63.84
29941;BME280;16801;53.562;10.038;2022-08-03T06:33:24;101387.78;;;22.73;62.76
29941;BME280;16801;53.562;10.038;2022-08-03T06:36:47;101396.41;;;22.70;62.67
29941;BME280;16801;53.562;10.038;2022-08-03T06:40:10;101394.13;;;22.73;62.77
29941;BME280;16801;53.562;10.038;2022-08-03T06:43:31;101397.22;;;22.98;63.05
29941;BME280;16801;53.562;10.038;2022-08-03T06:46:54;101390.34;;;23.22;61.65
29941;BME280;16801;53.562;10.038;2022-08-03T06:50:17;101392.47;;;23.20;61.73
29941;BME280;16801;53.562;10.038;2022-08-03T06:53:41;101401.03;;;23.44;61.15
29941;BME280;16801;53.562;10.038;2022-08-03T06:57:02;101398.94;;;23.46;60.95
29941;BME280;16801;53.562;10.038;2022-08-03T07:00:24;101393.47;;;23.72;60.90
29941;BME280;16801;53.562;10.038;2022-08-03T07:03:45;101389.47;;;23.88;60.43
29941;BME280;16801;53.562;10.038;2022-08-03T07:07:06;101392.25;;;23.95;60.08
29941;BME280;16801;53.562;10.038;2022-08-03T07:10:28;101402.88;;;24.04;59.33
29941;BME280;16801;53.562;10.038;2022-08-03T07:13:49;101400.53;;;24.27;59.13
29941;BME280;16801;53.562;10.038;2022-08-03T07:17:09;101409.44;;;24.49;58.58
29941;BME280;16801;53.562;10.038;2022-08-03T07:20:30;101410.88;;;24.65;58.41
29941;BME280;16801;53.562;10.038;2022-08-03T07:23:52;101411.50;;;24.67;58.19
29941;BME280;16801;53.562;10.038;2022-08-03T07:27:16;101403.91;;;24.75;58.15
29941;BME280;16801;53.562;10.038;2022-08-03T07:30:37;101406.56;;;25.01;58.20
29941;BME280;16801;53.562;10.038;2022-08-03T07:33:58;101408.69;;;24.99;57.62
29941;BME280;16801;53.562;10.038;2022-08-03T07:37:18;101406.91;;;25.18;57.04
29941;BME280;16801;53.562;10.038;2022-08-03T07:40:40;101409.03;;;25.22;56.34
29941;BME280;16801;53.562;10.038;2022-08-03T07:44:02;101407.09;;;25.43;54.89
29941;BME280;16801;53.562;10.038;2022-08-03T07:47:26;101410.50;;;25.76;54.40
29941;BME280;16801;53.562;10.038;2022-08-03T07:50:48;101411.59;;;25.99;53.75
29941;BME280;16801;53.562;10.038;2022-08-03T07:54:09;101403.47;;;26.11;53.03
29941;BME280;16801;53.562;10.038;2022-08-03T07:57:30;101402.81;;;25.78;51.04
29941;BME280;16801;53.562;10.038;2022-08-03T08:00:52;101408.91;;;25.93;52.24
29941;BME280;16801;53.562;10.038;2022-08-03T08:04:13;101402.56;;;26.17;51.69
29941;BME280;16801;53.562;10.038;2022-08-03T08:07:35;101408.03;;;26.24;50.65
29941;BME280;16801;53.562;10.038;2022-08-03T08:10:56;101402.16;;;26.38;51.24
29941;BME280;16801;53.562;10.038;2022-08-03T08:14:17;101400.03;;;26.58;50.54
29941;BME280;16801;53.562;10.038;2022-08-03T08:17:47;101402.03;;;26.76;49.63
29941;BME280;16801;53.562;10.038;2022-08-03T08:21:08;101397.75;;;26.55;48.73
29941;BME280;16801;53.562;10.038;2022-08-03T08:24:29;101395.47;;;26.46;49.33
29941;BME280;16801;53.562;10.038;2022-08-03T08:27:50;101401.63;;;26.72;49.02
29941;BME280;16801;53.562;10.038;2022-08-03T08:31:11;101402.03;;;26.51;49.49
29941;BME280;16801;53.562;10.038;2022-08-03T08:34:33;101389.09;;;26.70;49.85
29941;BME280;16801;53.562;10.038;2022-08-03T08:37:55;101387.50;;;26.99;49.31
29941;BME280;16801;53.562;10.038;2022-08-03T08:41:15;101390.50;;;26.97;49.87
29941;BME280;16801;53.562;10.038;2022-08-03T08:44:36;101406.72;;;27.12;48.85
29941;BME280;16801;53.562;10.038;2022-08-03T08:47:58;101402.66;;;26.96;49.38
29941;BME280;16801;53.562;10.038;2022-08-03T08:51:27;101392.91;;;26.69;49.85
29941;BME280;16801;53.562;10.038;2022-08-03T08:54:49;101409.66;;;26.80;50.18
29941;BME280;16801;53.562;10.038;2022-08-03T08:58:13;101420.56;;;26.93;49.70
29941;BME280;16801;53.562;10.038;2022-08-03T09:01:38;101410.66;;;26.86;50.17
29941;BME280;16801;53.562;10.038;2022-08-03T09:05:00;101417.09;;;26.98;49.32
29941;BME280;16801;53.562;10.038;2022-08-03T09:08:22;101409.41;;;26.82;50.21
29941;BME280;16801;53.562;10.038;2022-08-03T09:11:44;101405.59;;;27.01;50.16
29941;BME280;16801;53.562;10.038;2022-08-03T09:15:19;101419.16;;;27.21;50.10
29941;BME280;16801;53.562;10.038;2022-08-03T09:18:41;101402.50;;;27.09;50.38
29941;BME280;16801;53.562;10.038;2022-08-03T09:22:07;101406.16;;;27.21;50.19
29941;BME280;16801;53.562;10.038;2022-08-03T09:25:32;101406.91;;;27.35;49.87
29941;BME280;16801;53.562;10.038;2022-08-03T09:28:55;101408.00;;;27.45;49.83
29941;BME280;16801;53.562;10.038;2022-08-03T09:32:19;101406.78;;;27.23;49.93
29941;BME280;16801;53.562;10.038;2022-08-03T09:35:41;101409.41;;;27.36;49.60
29941;BME280;16801;53.562;10.038;2022-08-03T09:39:04;101406.69;;;27.48;48.99
29941;BME280;16801;53.562;10.038;2022-08-03T09:42:27;101397.72;;;27.34;50.02
29941;BME280;16801;53.562;10.038;2022-08-03T09:45:49;101400.78;;;27.74;48.92
29941;BME280;16801;53.562;10.038;2022-08-03T09:49:12;101412.00;;;27.79;48.87
29941;BME280;16801;53.562;10.038;2022-08-03T09:52:34;101390.53;;;28.04;48.79
29941;BME280;16801;53.562;10.038;2022-08-03T09:55:57;101380.63;;;28.08;48.79
29941;BME280;16801;53.562;10.038;2022-08-03T09:59:24;101393.81;;;28.24;48.38
29941;BME280;16801;53.562;10.038;2022-08-03T10:02:46;101391.13;;;27.77;48.80
29941;BME280;16801;53.562;10.038;2022-08-03T10:06:16;101396.28;;;27.91;48.02
29941;BME280;16801;53.562;10.038;2022-08-03T10:09:53;101387.47;;;27.94;48.38
29941;BME280;16801;53.562;10.038;2022-08-03T10:13:17;101382.19;;;28.04;47.92
29941;BME280;16801;53.562;10.038;2022-08-03T10:16:39;101391.03;;;28.13;48.19
29941;BME280;16801;53.562;10.038;2022-08-03T10:20:00;101385.03;;;28.39;47.60
29941;BME280;16801;53.562;10.038;2022-08-03T10:23:22;101384.31;;;28.20;47.48
29941;BME280;16801;53.562;10.038;2022-08-03T10:26:44;101371.16;;;28.62;47.27
29941;BME280;16801;53.562;10.038;2022-08-03T10:30:07;101375.31;;;29.11;46.95
29941;BME280;16801;53.562;10.038;2022-08-03T10:33:33;101383.47;;;28.78;46.46
29941;BME280;16801;53.562;10.038;2022-08-03T10:36:58;101374.16;;;28.84;46.59
29941;BME280;16801;53.562;10.038;2022-08-03T10:40:21;101369.19;;;28.97;46.67
29941;BME280;16801;53.562;10.038;2022-08-03T10:43:46;101374.44;;;28.59;47.24
29941;BME280;16801;53.562;10.038;2022-08-03T10:47:09;101371.41;;;28.72;46.58
29941;BME280;16801;53.562;10.038;2022-08-03T10:50:31;101374.16;;;28.84;46.49
29941;BME280;16801;53.562;10.038;2022-08-03T10:53:52;101370.81;;;28.59;46.74
29941;BME280;16801;53.562;10.038;2022-08-03T10:57:47;101370.81;;;28.59;46.37
29941;BME280;16801;53.562;10.038;2022-08-03T11:01:09;101374.41;;;28.71;46.63
29941;BME280;16801;53.562;10.038;2022-08-03T11:04:31;101373.00;;;28.68;46.51
29941;BME280;16801;53.562;10.038;2022-08-03T11:08:28;101360.53;;;28.82;46.18
29941;BME280;16801;53.562;10.038;2022-08-03T11:11:49;101364.50;;;28.86;45.56
29941;BME280;16801;53.562;10.038;2022-08-03T11:15:10;101367.66;;;28.67;46.76
29941;BME280;16801;53.562;10.038;2022-08-03T11:18:31;101364.72;;;29.08;45.53
29941;BME280;16801;53.562;10.038;2022-08-03T11:21:56;101364.47;;;28.98;45.25
29941;BME280;16801;53.562;10.038;2022-08-03T11:25:19;101377.75;;;28.96;45.22
29941;BME280;16801;53.562;10.038;2022-08-03T11:28:41;101361.22;;;29.01;44.93
29941;BME280;16801;53.562;10.038;2022-08-03T11:32:03;101366.31;;;29.60;44.08
29941;BME280;16801;53.562;10.038;2022-08-03T11:35:25;101357.13;;;30.21;43.46
29941;BME280;16801;53.562;10.038;2022-08-03T11:39:11;101362.75;;;30.76;41.97
29941;BME280;16801;53.562;10.038;2022-08-03T11:42:43;101360.00;;;30.26;43.20
29941;BME280;16801;53.562;10.038;2022-08-03T11:46:06;101362.03;;;30.64;42.34
29941;BME280;16801;53.562;10.038;2022-08-03T11:49:31;101361.56;;;29.72;44.03
29941;BME280;16801;53.562;10.038;2022-08-03T11:52:52;101350.41;;;30.17;43.12
29941;BME280;16801;53.562;10.038;2022-08-03T11:56:13;101353.63;;;30.42;42.42
29941;BME280;16801;53.562;10.038;2022-08-03T11:59:36;101360.53;;;30.40;42.41
29941;BME280;16801;53.562;10.038;2022-08-03T12:02:59;101347.63;;;30.17;42.54
29941;BME280;16801;53.562;10.038;2022-08-03T12:06:20;101358.19;;;30.87;41.33
29941;BME280;16801;53.562;10.038;2022-08-03T12:09:42;101359.63;;;30.72;41.16
29941;BME280;16801;53.562;10.038;2022-08-03T12:13:04;101337.69;;;30.76;40.53
29941;BME280;16801;53.562;10.038;2022-08-03T12:16:28;101347.94;;;31.14;40.27
29941;BME280;16801;53.562;10.038;2022-08-03T12:19:49;101347.88;;;31.30;40.23
29941;BME280;16801;53.562;10.038;2022-08-03T12:23:11;101335.28;;;31.28;39.26
29941;BME280;16801;53.562;10.038;2022-08-03T12:26:42;101341.81;;;31.12;40.30
29941;BME280;16801;53.562;10.038;2022-08-03T12:30:04;101340.22;;;31.42;39.67
29941;BME280;16801;53.562;10.038;2022-08-03T12:33:26;101336.69;;;32.05;39.17
29941;BME280;16801;53.562;10.038;2022-08-03T12:36:50;101331.44;;;32.97;37.61
29941;BME280;16801;53.562;10.038;2022-08-03T12:40:11;101335.28;;;32.81;37.16
29941;BME280;16801;53.562;10.038;2022-08-03T12:43:34;101336.72;;;34.51;34.00
29941;BME280;16801;53.562;10.038;2022-08-03T12:46:56;101329.34;;;35.88;31.87
29941;BME280;16801;53.562;10.038;2022-08-03T12:50:24;101329.00;;;36.57;30.58
29941;BME280;16801;53.562;10.038;2022-08-03T12:53:51;101321.63;;;36.09;31.27
29941;BME280;16801;53.562;10.038;2022-08-03T12:57:12;101322.69;;;36.70;30.83
29941;BME280;16801;53.562;10.038;2022-08-03T13:00:33;101333.91;;;36.47;30.78
29941;BME280;16801;53.562;10.038;2022-08-03T13:03:54;101328.69;;;38.96;27.92
29941;BME280;16801;53.562;10.038;2022-08-03T13:07:17;101322.94;;;38.87;27.48
29941;BME280;16801;53.562;10.038;2022-08-03T13:10:38;101335.47;;;36.29;30.87
29941;BME280;16801;53.562;10.038;2022-08-03T13:13:59;101330.97;;;36.28;30.42
29941;BME280;16801;53.562;10.038;2022-08-03T13:17:21;101333.84;;;38.62;28.35
29941;BME280;16801;53.562;10.038;2022-08-03T13:20:44;101336.44;;;39.67;27.00
29941;BME280;16801;53.562;10.038;2022-08-03T13:24:06;101326.59;;;38.88;27.54
29941;BME280;16801;53.562;10.038;2022-08-03T13:27:28;101319.97;;;39.82;26.53
29941;BME280;16801;53.562;10.038;2022-08-03T13:30:50;101321.59;;;37.37;29.65
29941;BME280;16801;53.562;10.038;2022-08-03T13:34:12;101319.56;;;38.45;28.26
29941;BME280;16801;53.562;10.038;2022-08-03T13:37:34;101321.41;;;40.46;25.92
29941;BME280;16801;53.562;10.038;2022-08-03T13:40:56;101318.53;;;39.71;26.39
29941;BME280;16801;53.562;10.038;2022-08-03T13:44:18;101331.28;;;37.26;29.29
29941;BME280;16801;53.562;10.038;2022-08-03T13:47:39;101318.13;;;39.15;27.79
29941;BME280;16801;53.562;10.038;2022-08-03T13:51:00;101315.09;;;36.71;29.94
29941;BME280;16801;53.562;10.038;2022-08-03T13:54:21;101310.56;;;36.99;30.24
29941;BME280;16801;53.562;10.038;2022-08-03T13:57:45;101303.97;;;38.47;28.76
29941;BME280;16801;53.562;10.038;2022-08-03T14:01:06;101304.09;;;38.42;27.67
29941;BME280;16801;53.562;10.038;2022-08-03T14:04:26;101293.53;;;38.34;28.32
29941;BME280;16801;53.562;10.038;2022-08-03T14:07:47;101300.72;;;36.49;31.54
29941;BME280;16801;53.562;10.038;2022-08-03T14:11:09;101292.59;;;35.51;31.67
29941;BME280;16801;53.562;10.038;2022-08-03T14:14:31;101294.88;;;35.39;33.35
29941;BME280;16801;53.562;10.038;2022-08-03T14:17:52;101293.81;;;34.71;33.68
29941;BME280;16801;53.562;10.038;2022-08-03T14:21:13;101296.31;;;34.73;33.92
29941;BME280;16801;53.562;10.038;2022-08-03T14:24:34;101298.66;;;33.95;34.66
29941;BME280;16801;53.562;10.038;2022-08-03T14:27:55;101293.66;;;32.90;36.44
29941;BME280;16801;53.562;10.038;2022-08-03T14:31:17;101297.53;;;33.86;35.87
29941;BME280;16801;53.562;10.038;2022-08-03T14:34:38;101283.72;;;34.70;35.04
29941;BME280;16801;53.562;10.038;2022-08-03T14:37:58;101289.28;;;35.39;33.69
29941;BME280;16801;53.562;10.038;2022-08-03T14:41:19;101288.28;;;33.65;35.22
29941;BME280;16801;53.562;10.038;2022-08-03T14:44:40;101291.06;;;33.45;35.34
29941;BME280;16801;53.562;10.038;2022-08-03T14:48:02;101281.81;;;33.40;36.47
29941;BME280;16801;53.562;10.038;2022-08-03T14:51:23;101287.94;;;32.60;36.95
29941;BME280;16801;53.562;10.038;2022-08-03T14:54:45;101284.34;;;32.69;37.20
29941;BME280;16801;53.562;10.038;2022-08-03T14:58:05;101286.44;;;32.94;37.06
29941;BME280;16801;53.562;10.038;2022-08-03T15:01:26;101275.06;;;33.21;36.39
29941;BME280;16801;53.562;10.038;2022-08-03T15:04:49;101277.69;;;32.80;36.89
29941;BME280;16801;53.562;10.038;2022-08-03T15:08:10;101272.22;;;32.49;37.38
29941;BME280;16801;53.562;10.038;2022-08-03T15:11:31;101271.59;;;32.93;37.31
29941;BME280;16801;53.562;10.038;2022-08-03T15:14:52;101272.34;;;33.91;36.33
29941;BME280;16801;53.562;10.038;2022-08-03T15:18:13;101270.03;;;34.58;35.71
29941;BME280;16801;53.562;10.038;2022-08-03T15:21:35;101272.59;;;34.30;35.43
29941;BME280;16801;53.562;10.038;2022-08-03T15:24:56;101262.28;;;33.60;35.88
29941;BME280;16801;53.562;10.038;2022-08-03T15:28:17;101263.41;;;34.09;35.67
29941;BME280;16801;53.562;10.038;2022-08-03T15:31:38;101264.50;;;34.18;34.82
29941;BME280;16801;53.562;10.038;2022-08-03T15:35:00;101257.81;;;33.69;35.81
29941;BME280;16801;53.562;10.038;2022-08-03T15:38:22;101269.00;;;33.74;35.33
29941;BME280;16801;53.562;10.038;2022-08-03T15:41:44;101253.06;;;33.74;35.11
29941;BME280;16801;53.562;10.038;2022-08-03T15:45:05;101263.72;;;32.80;36.73
29941;BME280;16801;53.562;10.038;2022-08-03T15:48:26;101258.75;;;31.94;37.75
29941;BME280;16801;53.562;10.038;2022-08-03T15:51:47;101256.31;;;31.76;38.84
29941;BME280;16801;53.562;10.038;2022-08-03T15:55:10;101267.31;;;31.87;38.76
29941;BME280;16801;53.562;10.038;2022-08-03T15:58:31;101257.34;;;32.33;37.81
29941;BME280;16801;53.562;10.038;2022-08-03T16:01:52;101259.91;;;33.01;36.67
29941;BME280;16801;53.562;10.038;2022-08-03T16:05:15;101257.75;;;32.57;36.52
29941;BME280;16801;53.562;10.038;2022-08-03T16:08:36;101249.59;;;33.12;35.89
29941;BME280;16801;53.562;10.038;2022-08-03T16:11:58;101253.72;;;32.89;36.49
29941;BME280;16801;53.562;10.038;2022-08-03T16:15:18;101250.47;;;33.13;37.18
29941;BME280;16801;53.562;10.038;2022-08-03T16:18:40;101240.56;;;32.90;37.03
29941;BME280;16801;53.562;10.038;2022-08-03T16:22:01;101253.53;;;33.16;37.24
29941;BME280;16801;53.562;10.038;2022-08-03T16:25:22;101250.28;;;32.77;37.23
29941;BME280;16801;53.562;10.038;2022-08-03T16:28:44;101244.44;;;32.84;36.82
29941;BME280;16801;53.562;10.038;2022-08-03T16:32:05;101243.50;;;33.25;36.80
29941;BME280;16801;53.562;10.038;2022-08-03T16:35:27;101247.25;;;32.32;36.38
29941;BME280;16801;53.562;10.038;2022-08-03T16:38:48;101247.38;;;32.05;36.92
29941;BME280;16801;53.562;10.038;2022-08-03T16:42:10;101250.56;;;31.87;36.92
29941;BME280;16801;53.562;10.038;2022-08-03T16:45:34;101258.03;;;32.55;36.52
29941;BME280;16801;53.562;10.038;2022-08-03T16:48:55;101250.59;;;32.81;36.96
29941;BME280;16801;53.562;10.038;2022-08-03T16:52:16;101251.91;;;32.63;36.76
29941;BME280;16801;53.562;10.038;2022-08-03T16:55:38;101258.06;;;32.60;36.83
29941;BME280;16801;53.562;10.038;2022-08-03T16:58:59;101257.91;;;32.35;37.51
29941;BME280;16801;53.562;10.038;2022-08-03T17:02:23;101256.81;;;32.41;37.78
29941;BME280;16801;53.562;10.038;2022-08-03T17:05:44;101257.13;;;33.01;36.99
29941;BME280;16801;53.562;10.038;2022-08-03T17:09:07;101255.16;;;33.07;36.51
29941;BME280;16801;53.562;10.038;2022-08-03T17:12:28;101259.16;;;33.31;36.93
29941;BME280;16801;53.562;10.038;2022-08-03T17:15:50;101260.28;;;33.45;37.32
29941;BME280;16801;53.562;10.038;2022-08-03T17:19:14;101262.50;;;33.33;37.11
29941;BME280;16801;53.562;10.038;2022-08-03T17:22:39;101258.59;;;33.29;37.36
29941;BME280;16801;53.562;10.038;2022-08-03T17:26:03;101254.13;;;33.33;36.98